sensor_id;sensor_type;location;lat;lon;timestamp;P1;durP1;ratioP1;P2;durP2;ratioP2
30697;SDS011;17448;47.200;10.902;2023-06-22T00:00:19;19.98;;;10.50;;
30697;SDS011;17448;47.200;10.902;2023-06-22T00:02:46;21.38;;;9.73;;
30697;SDS011;17448;47.200;10.902;2023-06-22T00:05:13;20.30;;;8.73;;
30697;SDS011;17448;47.200;10.902;2023-06-22T00:07:39;19.10;;;9.75;;
30697;SDS011;17448;47.200;10.902;2023-06-22T00:10:06;20.15;;;10.02;;
30697;SDS011;17448;47.200;10.902;2023-06-22T00:12:33;19.50;;;10.55;;
30697;SDS011;17448;47.200;10.902;2023-06-22T00:15:00;21.77;;;9.30;;
30697;SDS011;17448;47.200;10.902;2023-06-22T00:17:32;22.17;;;9.43;;
30697;SDS011;17448;47.200;10.902;2023-06-22T00:20:02;22.38;;;10.00;;
30697;SDS011;17448;47.200;10.902;2023-06-22T00:22:31;29.17;;;9.82;;
30697;SDS011;17448;47.200;10.902;2023-06-22T00:25:05;24.67;;;9.73;;
30697;SDS011;17448;47.200;10.902;2023-06-22T00:27:35;20.10;;;8.45;;
30697;SDS011;17448;47.200;10.902;2023-06-22T00:30:02;24.13;;;10.23;;
30697;SDS011;17448;47.200;10.902;2023-06-22T00:32:29;27.85;;;10.90;;
30697;SDS011;17448;47.200;10.902;2023-06-22T00:34:55;21.65;;;9.85;;
30697;SDS011;17448;47.200;10.902;2023-06-22T00:37:22;20.00;;;10.63;;
30697;SDS011;17448;47.200;10.902;2023-06-22T00:39:57;21.05;;;11.43;;
30697;SDS011;17448;47.200;10.902;2023-06-22T00:42:27;23.55;;;10.65;;
30697;SDS011;17448;47.200;10.902;2023-06-22T00:45:15;27.35;;;10.77;;
30697;SDS011;17448;47.200;10.902;2023-06-22T00:47:57;23.25;;;10.07;;
30697;SDS011;17448;47.200;10.902;2023-06-22T00:50:28;20.63;;;10.23;;
30697;SDS011;17448;47.200;10.902;2023-06-22T00:52:59;27.83;;;11.20;;
30697;SDS011;17448;47.200;10.902;2023-06-22T00:55:26;29.80;;;10.30;;
30697;SDS011;17448;47.200;10.902;2023-06-22T00:57:53;24.10;;;10.05;;
30697;SDS011;17448;47.200;10.902;2023-06-22T01:00:23;21.40;;;10.30;;
30697;SDS011;17448;47.200;10.902;2023-06-22T01:02:50;20.48;;;9.18;;
30697;SDS011;17448;47.200;10.902;2023-06-22T01:05:18;19.40;;;9.88;;
30697;SDS011;17448;47.200;10.902;2023-06-22T01:08:00;24.35;;;10.15;;
30697;SDS011;17448;47.200;10.902;2023-06-22T01:15:51;18.17;;;10.50;;
30697;SDS011;17448;47.200;10.902;2023-06-22T01:18:18;24.00;;;10.68;;
30697;SDS011;17448;47.200;10.902;2023-06-22T01:20:45;25.52;;;10.85;;
30697;SDS011;17448;47.200;10.902;2023-06-22T01:23:29;25.27;;;9.77;;
30697;SDS011;17448;47.200;10.902;2023-06-22T01:28:39;17.65;;;10.15;;
30697;SDS011;17448;47.200;10.902;2023-06-22T01:31:11;21.35;;;9.70;;
30697;SDS011;17448;47.200;10.902;2023-06-22T01:33:39;21.42;;;10.00;;
30697;SDS011;17448;47.200;10.902;2023-06-22T01:36:07;21.02;;;10.77;;
30697;SDS011;17448;47.200;10.902;2023-06-22T01:38:34;24.98;;;11.93;;
30697;SDS011;17448;47.200;10.902;2023-06-22T01:41:02;18.58;;;9.75;;
30697;SDS011;17448;47.200;10.902;2023-06-22T01:43:28;21.85;;;9.63;;
30697;SDS011;17448;47.200;10.902;2023-06-22T01:45:55;19.92;;;10.30;;
30697;SDS011;17448;47.200;10.902;2023-06-22T01:48:22;23.02;;;10.80;;
30697;SDS011;17448;47.200;10.902;2023-06-22T01:50:51;23.25;;;10.52;;
30697;SDS011;17448;47.200;10.902;2023-06-22T01:53:21;24.13;;;10.90;;
30697;SDS011;17448;47.200;10.902;2023-06-22T01:55:50;21.55;;;8.60;;
30697;SDS011;17448;47.200;10.902;2023-06-22T01:58:19;20.20;;;8.95;;
30697;SDS011;17448;47.200;10.902;2023-06-22T02:00:54;22.33;;;9.68;;
30697;SDS011;17448;47.200;10.902;2023-06-22T02:03:24;17.50;;;9.38;;
30697;SDS011;17448;47.200;10.902;2023-06-22T02:05:54;22.02;;;10.02;;
30697;SDS011;17448;47.200;10.902;2023-06-22T02:08:25;18.92;;;8.63;;
30697;SDS011;17448;47.200;10.902;2023-06-22T02:10:51;23.00;;;9.75;;
30697;SDS011;17448;47.200;10.902;2023-06-22T02:13:19;25.25;;;10.77;;
30697;SDS011;17448;47.200;10.902;2023-06-22T02:15:49;17.88;;;9.20;;
30697;SDS011;17448;47.200;10.902;2023-06-22T02:18:16;19.90;;;9.45;;
30697;SDS011;17448;47.200;10.902;2023-06-22T02:20:43;25.25;;;10.48;;
30697;SDS011;17448;47.200;10.902;2023-06-22T02:23:09;25.13;;;10.27;;
30697;SDS011;17448;47.200;10.902;2023-06-22T02:25:38;23.33;;;10.18;;
30697;SDS011;17448;47.200;10.902;2023-06-22T02:28:05;21.25;;;9.15;;
30697;SDS011;17448;47.200;10.902;2023-06-22T02:30:34;21.05;;;9.23;;
30697;SDS011;17448;47.200;10.902;2023-06-22T02:33:06;19.67;;;8.48;;
30697;SDS011;17448;47.200;10.902;2023-06-22T02:35:35;23.75;;;9.93;;
30697;SDS011;17448;47.200;10.902;2023-06-22T02:38:02;20.65;;;9.55;;
30697;SDS011;17448;47.200;10.902;2023-06-22T02:40:31;20.90;;;9.90;;
30697;SDS011;17448;47.200;10.902;2023-06-22T02:42:59;14.93;;;8.68;;
30697;SDS011;17448;47.200;10.902;2023-06-22T02:45:28;17.30;;;9.75;;
30697;SDS011;17448;47.200;10.902;2023-06-22T02:48:06;20.92;;;9.60;;
30697;SDS011;17448;47.200;10.902;2023-06-22T02:50:33;21.95;;;9.85;;
30697;SDS011;17448;47.200;10.902;2023-06-22T02:53:00;25.35;;;10.02;;
30697;SDS011;17448;47.200;10.902;2023-06-22T02:55:29;22.73;;;10.95;;
30697;SDS011;17448;47.200;10.902;2023-06-22T02:57:57;20.52;;;10.32;;
30697;SDS011;17448;47.200;10.902;2023-06-22T03:00:27;21.35;;;9.95;;
30697;SDS011;17448;47.200;10.902;2023-06-22T03:02:56;21.20;;;9.55;;
30697;SDS011;17448;47.200;10.902;2023-06-22T03:05:23;19.67;;;10.10;;
30697;SDS011;17448;47.200;10.902;2023-06-22T03:07:50;22.58;;;9.50;;
30697;SDS011;17448;47.200;10.902;2023-06-22T03:10:16;24.67;;;9.07;;
30697;SDS011;17448;47.200;10.902;2023-06-22T03:12:43;23.15;;;10.13;;
30697;SDS011;17448;47.200;10.902;2023-06-22T03:15:11;23.13;;;9.65;;
30697;SDS011;17448;47.200;10.902;2023-06-22T03:17:38;19.70;;;9.82;;
30697;SDS011;17448;47.200;10.902;2023-06-22T03:20:07;22.02;;;10.40;;
30697;SDS011;17448;47.200;10.902;2023-06-22T03:22:38;21.08;;;9.70;;
30697;SDS011;17448;47.200;10.902;2023-06-22T03:25:04;21.00;;;8.98;;
30697;SDS011;17448;47.200;10.902;2023-06-22T03:27:41;21.83;;;9.35;;
30697;SDS011;17448;47.200;10.902;2023-06-22T03:30:12;21.67;;;9.05;;
30697;SDS011;17448;47.200;10.902;2023-06-22T03:32:38;18.10;;;8.13;;
30697;SDS011;17448;47.200;10.902;2023-06-22T03:35:05;18.73;;;8.20;;
30697;SDS011;17448;47.200;10.902;2023-06-22T03:37:34;17.20;;;8.43;;
30697;SDS011;17448;47.200;10.902;2023-06-22T03:40:02;25.48;;;9.02;;
30697;SDS011;17448;47.200;10.902;2023-06-22T03:42:33;20.25;;;9.40;;
30697;SDS011;17448;47.200;10.902;2023-06-22T03:45:03;25.38;;;10.10;;
30697;SDS011;17448;47.200;10.902;2023-06-22T03:47:31;21.25;;;9.43;;
30697;SDS011;17448;47.200;10.902;2023-06-22T03:50:02;19.85;;;9.30;;
30697;SDS011;17448;47.200;10.902;2023-06-22T03:52:32;17.95;;;8.82;;
30697;SDS011;17448;47.200;10.902;2023-06-22T03:55:03;20.35;;;8.45;;
30697;SDS011;17448;47.200;10.902;2023-06-22T03:57:31;15.02;;;8.85;;
30697;SDS011;17448;47.200;10.902;2023-06-22T03:59:58;16.70;;;8.65;;
30697;SDS011;17448;47.200;10.902;2023-06-22T04:02:25;15.75;;;8.23;;
30697;SDS011;17448;47.200;10.902;2023-06-22T04:04:51;18.75;;;8.07;;
30697;SDS011;17448;47.200;10.902;2023-06-22T04:07:21;22.80;;;8.98;;
30697;SDS011;17448;47.200;10.902;2023-06-22T04:09:47;23.45;;;9.70;;
30697;SDS011;17448;47.200;10.902;2023-06-22T04:12:16;21.63;;;9.35;;
30697;SDS011;17448;47.200;10.902;2023-06-22T04:14:43;24.70;;;9.25;;
30697;SDS011;17448;47.200;10.902;2023-06-22T04:17:15;16.00;;;8.32;;
30697;SDS011;17448;47.200;10.902;2023-06-22T04:19:46;21.33;;;8.80;;
30697;SDS011;17448;47.200;10.902;2023-06-22T04:24:57;20.75;;;8.50;;
30697;SDS011;17448;47.200;10.902;2023-06-22T04:27:24;14.75;;;8.25;;
30697;SDS011;17448;47.200;10.902;2023-06-22T04:29:51;25.73;;;9.43;;
30697;SDS011;17448;47.200;10.902;2023-06-22T04:32:18;25.35;;;10.00;;
30697;SDS011;17448;47.200;10.902;2023-06-22T04:34:44;22.90;;;9.68;;
30697;SDS011;17448;47.200;10.902;2023-06-22T04:37:10;20.90;;;8.15;;
30697;SDS011;17448;47.200;10.902;2023-06-22T04:39:41;23.08;;;9.02;;
30697;SDS011;17448;47.200;10.902;2023-06-22T04:42:09;20.75;;;9.10;;
30697;SDS011;17448;47.200;10.902;2023-06-22T04:44:39;24.45;;;9.30;;
30697;SDS011;17448;47.200;10.902;2023-06-22T04:47:09;13.73;;;8.00;;
30697;SDS011;17448;47.200;10.902;2023-06-22T04:49:36;23.67;;;8.45;;
30697;SDS011;17448;47.200;10.902;2023-06-22T04:52:04;18.27;;;9.30;;
30697;SDS011;17448;47.200;10.902;2023-06-22T04:54:30;19.67;;;8.48;;
30697;SDS011;17448;47.200;10.902;2023-06-22T04:56:58;21.17;;;8.43;;
30697;SDS011;17448;47.200;10.902;2023-06-22T04:59:29;18.75;;;8.25;;
30697;SDS011;17448;47.200;10.902;2023-06-22T05:04:27;19.92;;;10.32;;
30697;SDS011;17448;47.200;10.902;2023-06-22T05:06:57;20.52;;;8.82;;
30697;SDS011;17448;47.200;10.902;2023-06-22T05:09:24;24.10;;;9.30;;
30697;SDS011;17448;47.200;10.902;2023-06-22T05:11:55;22.95;;;9.10;;
30697;SDS011;17448;47.200;10.902;2023-06-22T05:14:27;21.33;;;8.80;;
30697;SDS011;17448;47.200;10.902;2023-06-22T05:16:53;23.48;;;9.30;;
30697;SDS011;17448;47.200;10.902;2023-06-22T05:19:19;20.27;;;9.43;;
30697;SDS011;17448;47.200;10.902;2023-06-22T05:21:45;20.10;;;8.93;;
30697;SDS011;17448;47.200;10.902;2023-06-22T05:24:14;25.88;;;9.52;;
30697;SDS011;17448;47.200;10.902;2023-06-22T05:26:42;18.50;;;9.30;;
30697;SDS011;17448;47.200;10.902;2023-06-22T05:29:09;24.80;;;10.60;;
30697;SDS011;17448;47.200;10.902;2023-06-22T05:31:35;20.40;;;9.38;;
30697;SDS011;17448;47.200;10.902;2023-06-22T05:34:01;15.77;;;8.80;;
30697;SDS011;17448;47.200;10.902;2023-06-22T05:36:27;24.17;;;9.90;;
30697;SDS011;17448;47.200;10.902;2023-06-22T05:38:56;19.45;;;9.55;;
30697;SDS011;17448;47.200;10.902;2023-06-22T05:41:26;20.50;;;8.40;;
30697;SDS011;17448;47.200;10.902;2023-06-22T05:43:52;18.40;;;9.60;;
30697;SDS011;17448;47.200;10.902;2023-06-22T05:46:18;22.77;;;8.70;;
30697;SDS011;17448;47.200;10.902;2023-06-22T05:48:45;18.95;;;8.93;;
30697;SDS011;17448;47.200;10.902;2023-06-22T05:51:11;19.27;;;9.32;;
30697;SDS011;17448;47.200;10.902;2023-06-22T05:53:37;24.98;;;10.15;;
30697;SDS011;17448;47.200;10.902;2023-06-22T05:56:03;24.27;;;9.95;;
30697;SDS011;17448;47.200;10.902;2023-06-22T05:58:29;21.67;;;9.10;;
30697;SDS011;17448;47.200;10.902;2023-06-22T06:00:56;20.95;;;8.85;;
30697;SDS011;17448;47.200;10.902;2023-06-22T06:03:22;21.42;;;8.88;;
30697;SDS011;17448;47.200;10.902;2023-06-22T06:05:48;21.67;;;9.25;;
30697;SDS011;17448;47.200;10.902;2023-06-22T06:08:15;21.95;;;9.00;;
30697;SDS011;17448;47.200;10.902;2023-06-22T06:10:41;31.10;;;11.00;;
30697;SDS011;17448;47.200;10.902;2023-06-22T06:13:07;17.90;;;8.57;;
30697;SDS011;17448;47.200;10.902;2023-06-22T06:15:34;17.83;;;9.05;;
30697;SDS011;17448;47.200;10.902;2023-06-22T06:18:00;22.45;;;9.48;;
30697;SDS011;17448;47.200;10.902;2023-06-22T06:20:29;23.45;;;8.82;;
30697;SDS011;17448;47.200;10.902;2023-06-22T06:22:55;26.02;;;10.43;;
30697;SDS011;17448;47.200;10.902;2023-06-22T06:25:22;27.58;;;9.57;;
30697;SDS011;17448;47.200;10.902;2023-06-22T06:27:49;20.85;;;8.50;;
30697;SDS011;17448;47.200;10.902;2023-06-22T06:30:16;24.42;;;8.88;;
30697;SDS011;17448;47.200;10.902;2023-06-22T06:32:43;21.10;;;8.27;;
30697;SDS011;17448;47.200;10.902;2023-06-22T06:35:10;20.60;;;8.85;;
30697;SDS011;17448;47.200;10.902;2023-06-22T06:37:37;18.90;;;8.73;;
30697;SDS011;17448;47.200;10.902;2023-06-22T06:40:07;20.52;;;8.82;;
30697;SDS011;17448;47.200;10.902;2023-06-22T06:42:45;20.08;;;9.00;;
30697;SDS011;17448;47.200;10.902;2023-06-22T06:45:12;23.02;;;9.70;;
30697;SDS011;17448;47.200;10.902;2023-06-22T06:47:39;20.60;;;9.18;;
30697;SDS011;17448;47.200;10.902;2023-06-22T06:50:05;20.15;;;8.82;;
30697;SDS011;17448;47.200;10.902;2023-06-22T06:52:32;26.50;;;9.23;;
30697;SDS011;17448;47.200;10.902;2023-06-22T06:54:59;33.47;;;10.20;;
30697;SDS011;17448;47.200;10.902;2023-06-22T06:57:25;19.10;;;8.48;;
30697;SDS011;17448;47.200;10.902;2023-06-22T06:59:58;28.55;;;9.57;;
30697;SDS011;17448;47.200;10.902;2023-06-22T07:02:25;27.33;;;9.38;;
30697;SDS011;17448;47.200;10.902;2023-06-22T07:04:53;21.95;;;9.25;;
30697;SDS011;17448;47.200;10.902;2023-06-22T07:07:22;25.58;;;9.60;;
30697;SDS011;17448;47.200;10.902;2023-06-22T07:09:48;20.85;;;8.35;;
30697;SDS011;17448;47.200;10.902;2023-06-22T07:12:14;24.77;;;9.25;;
30697;SDS011;17448;47.200;10.902;2023-06-22T07:14:40;20.77;;;8.70;;
30697;SDS011;17448;47.200;10.902;2023-06-22T07:17:07;18.92;;;9.25;;
30697;SDS011;17448;47.200;10.902;2023-06-22T07:19:33;26.13;;;9.95;;
30697;SDS011;17448;47.200;10.902;2023-06-22T07:21:59;21.95;;;9.23;;
30697;SDS011;17448;47.200;10.902;2023-06-22T07:24:25;25.42;;;7.90;;
30697;SDS011;17448;47.200;10.902;2023-06-22T07:26:52;23.20;;;9.32;;
30697;SDS011;17448;47.200;10.902;2023-06-22T07:29:19;22.73;;;8.50;;
30697;SDS011;17448;47.200;10.902;2023-06-22T07:31:46;22.27;;;8.10;;
30697;SDS011;17448;47.200;10.902;2023-06-22T07:34:13;23.30;;;8.30;;
30697;SDS011;17448;47.200;10.902;2023-06-22T07:36:39;24.00;;;7.97;;
30697;SDS011;17448;47.200;10.902;2023-06-22T07:39:05;18.77;;;8.73;;
30697;SDS011;17448;47.200;10.902;2023-06-22T07:41:31;21.13;;;7.60;;
30697;SDS011;17448;47.200;10.902;2023-06-22T07:43:58;17.13;;;7.47;;
30697;SDS011;17448;47.200;10.902;2023-06-22T07:46:24;21.00;;;9.10;;
30697;SDS011;17448;47.200;10.902;2023-06-22T07:48:50;20.60;;;8.52;;
30697;SDS011;17448;47.200;10.902;2023-06-22T07:51:16;28.48;;;10.23;;
30697;SDS011;17448;47.200;10.902;2023-06-22T07:53:43;16.17;;;8.48;;
30697;SDS011;17448;47.200;10.902;2023-06-22T07:56:10;25.52;;;9.23;;
30697;SDS011;17448;47.200;10.902;2023-06-22T07:58:36;21.77;;;9.18;;
30697;SDS011;17448;47.200;10.902;2023-06-22T08:01:02;22.40;;;8.02;;
30697;SDS011;17448;47.200;10.902;2023-06-22T08:03:36;17.08;;;7.88;;
30697;SDS011;17448;47.200;10.902;2023-06-22T08:06:03;23.02;;;8.55;;
30697;SDS011;17448;47.200;10.902;2023-06-22T08:08:29;19.35;;;8.57;;
30697;SDS011;17448;47.200;10.902;2023-06-22T08:10:57;25.52;;;9.02;;
30697;SDS011;17448;47.200;10.902;2023-06-22T08:13:23;21.90;;;8.77;;
30697;SDS011;17448;47.200;10.902;2023-06-22T08:15:58;22.08;;;8.57;;
30697;SDS011;17448;47.200;10.902;2023-06-22T08:18:24;20.67;;;9.48;;
30697;SDS011;17448;47.200;10.902;2023-06-22T08:20:51;23.40;;;9.98;;
30697;SDS011;17448;47.200;10.902;2023-06-22T08:23:17;21.58;;;8.60;;
30697;SDS011;17448;47.200;10.902;2023-06-22T08:28:14;20.77;;;8.85;;
30697;SDS011;17448;47.200;10.902;2023-06-22T08:30:40;27.35;;;9.20;;
30697;SDS011;17448;47.200;10.902;2023-06-22T08:33:06;18.67;;;8.38;;
30697;SDS011;17448;47.200;10.902;2023-06-22T08:35:32;21.88;;;8.80;;
30697;SDS011;17448;47.200;10.902;2023-06-22T08:37:58;22.85;;;8.57;;
30697;SDS011;17448;47.200;10.902;2023-06-22T08:40:25;19.05;;;8.40;;
30697;SDS011;17448;47.200;10.902;2023-06-22T08:42:51;19.60;;;8.95;;
30697;SDS011;17448;47.200;10.902;2023-06-22T08:45:17;18.38;;;9.18;;
30697;SDS011;17448;47.200;10.902;2023-06-22T08:47:43;18.65;;;8.20;;
30697;SDS011;17448;47.200;10.902;2023-06-22T08:50:10;21.27;;;8.77;;
30697;SDS011;17448;47.200;10.902;2023-06-22T08:52:36;20.55;;;9.25;;
30697;SDS011;17448;47.200;10.902;2023-06-22T08:55:03;16.88;;;8.18;;
30697;SDS011;17448;47.200;10.902;2023-06-22T08:57:30;17.33;;;8.95;;
30697;SDS011;17448;47.200;10.902;2023-06-22T08:59:57;18.10;;;8.60;;
30697;SDS011;17448;47.200;10.902;2023-06-22T09:02:24;15.23;;;7.95;;
30697;SDS011;17448;47.200;10.902;2023-06-22T09:04:51;16.33;;;8.52;;
30697;SDS011;17448;47.200;10.902;2023-06-22T09:07:24;19.75;;;8.88;;
30697;SDS011;17448;47.200;10.902;2023-06-22T09:09:51;18.23;;;9.25;;
30697;SDS011;17448;47.200;10.902;2023-06-22T09:12:17;24.15;;;9.93;;
30697;SDS011;17448;47.200;10.902;2023-06-22T09:14:51;22.23;;;9.23;;
30697;SDS011;17448;47.200;10.902;2023-06-22T09:17:17;28.75;;;9.30;;
30697;SDS011;17448;47.200;10.902;2023-06-22T09:19:43;22.45;;;9.43;;
30697;SDS011;17448;47.200;10.902;2023-06-22T09:22:10;24.55;;;8.88;;
30697;SDS011;17448;47.200;10.902;2023-06-22T09:24:36;23.67;;;9.30;;
30697;SDS011;17448;47.200;10.902;2023-06-22T09:27:02;22.85;;;9.70;;
30697;SDS011;17448;47.200;10.902;2023-06-22T09:29:28;20.38;;;9.35;;
30697;SDS011;17448;47.200;10.902;2023-06-22T09:31:58;22.13;;;8.50;;
30697;SDS011;17448;47.200;10.902;2023-06-22T09:34:24;18.42;;;9.48;;
30697;SDS011;17448;47.200;10.902;2023-06-22T09:36:51;24.90;;;9.25;;
30697;SDS011;17448;47.200;10.902;2023-06-22T09:39:17;23.70;;;10.00;;
30697;SDS011;17448;47.200;10.902;2023-06-22T09:41:44;23.67;;;9.15;;
30697;SDS011;17448;47.200;10.902;2023-06-22T09:44:10;21.65;;;9.60;;
30697;SDS011;17448;47.200;10.902;2023-06-22T09:46:36;21.33;;;9.52;;
30697;SDS011;17448;47.200;10.902;2023-06-22T09:49:03;20.23;;;8.65;;
30697;SDS011;17448;47.200;10.902;2023-06-22T09:51:29;23.42;;;9.68;;
30697;SDS011;17448;47.200;10.902;2023-06-22T09:53:55;20.30;;;8.30;;
30697;SDS011;17448;47.200;10.902;2023-06-22T09:56:21;24.52;;;8.95;;
30697;SDS011;17448;47.200;10.902;2023-06-22T09:58:48;24.70;;;10.40;;
30697;SDS011;17448;47.200;10.902;2023-06-22T10:01:17;33.03;;;10.05;;
30697;SDS011;17448;47.200;10.902;2023-06-22T10:03:43;25.55;;;9.88;;
30697;SDS011;17448;47.200;10.902;2023-06-22T10:06:10;21.15;;;9.65;;
30697;SDS011;17448;47.200;10.902;2023-06-22T10:08:36;24.80;;;9.43;;
30697;SDS011;17448;47.200;10.902;2023-06-22T10:11:03;22.55;;;9.65;;
30697;SDS011;17448;47.200;10.902;2023-06-22T10:13:30;21.08;;;8.98;;
30697;SDS011;17448;47.200;10.902;2023-06-22T10:18:32;23.67;;;9.20;;
30697;SDS011;17448;47.200;10.902;2023-06-22T10:20:59;23.45;;;9.05;;
30697;SDS011;17448;47.200;10.902;2023-06-22T10:23:25;15.80;;;8.68;;
30697;SDS011;17448;47.200;10.902;2023-06-22T10:25:51;21.05;;;9.80;;
30697;SDS011;17448;47.200;10.902;2023-06-22T10:28:18;22.15;;;9.32;;
30697;SDS011;17448;47.200;10.902;2023-06-22T10:30:44;20.95;;;9.75;;
30697;SDS011;17448;47.200;10.902;2023-06-22T10:33:11;20.73;;;8.98;;
30697;SDS011;17448;47.200;10.902;2023-06-22T10:35:38;20.17;;;9.63;;
30697;SDS011;17448;47.200;10.902;2023-06-22T10:38:04;20.63;;;10.05;;
30697;SDS011;17448;47.200;10.902;2023-06-22T10:40:31;19.00;;;9.30;;
30697;SDS011;17448;47.200;10.902;2023-06-22T10:42:57;22.98;;;9.73;;
30697;SDS011;17448;47.200;10.902;2023-06-22T10:45:23;20.65;;;9.88;;
30697;SDS011;17448;47.200;10.902;2023-06-22T10:47:50;19.05;;;8.10;;
30697;SDS011;17448;47.200;10.902;2023-06-22T10:50:16;23.55;;;8.98;;
30697;SDS011;17448;47.200;10.902;2023-06-22T10:52:42;16.55;;;8.52;;
30697;SDS011;17448;47.200;10.902;2023-06-22T10:55:09;26.83;;;10.70;;
30697;SDS011;17448;47.200;10.902;2023-06-22T10:57:35;18.52;;;8.60;;
30697;SDS011;17448;47.200;10.902;2023-06-22T11:00:04;22.85;;;8.63;;
30697;SDS011;17448;47.200;10.902;2023-06-22T11:02:31;23.83;;;9.48;;
30697;SDS011;17448;47.200;10.902;2023-06-22T11:04:58;26.23;;;8.75;;
30697;SDS011;17448;47.200;10.902;2023-06-22T11:07:28;22.17;;;8.98;;
30697;SDS011;17448;47.200;10.902;2023-06-22T11:09:55;19.88;;;8.65;;
30697;SDS011;17448;47.200;10.902;2023-06-22T11:12:21;21.38;;;8.15;;
30697;SDS011;17448;47.200;10.902;2023-06-22T11:14:48;24.00;;;8.65;;
30697;SDS011;17448;47.200;10.902;2023-06-22T11:17:17;17.52;;;7.13;;
30697;SDS011;17448;47.200;10.902;2023-06-22T11:19:44;22.92;;;8.48;;
30697;SDS011;17448;47.200;10.902;2023-06-22T11:22:10;23.85;;;7.75;;
30697;SDS011;17448;47.200;10.902;2023-06-22T11:24:36;18.88;;;7.43;;
30697;SDS011;17448;47.200;10.902;2023-06-22T11:27:02;23.17;;;8.32;;
30697;SDS011;17448;47.200;10.902;2023-06-22T11:29:29;22.27;;;7.63;;
30697;SDS011;17448;47.200;10.902;2023-06-22T11:31:56;22.70;;;7.93;;
30697;SDS011;17448;47.200;10.902;2023-06-22T11:34:22;18.00;;;7.68;;
30697;SDS011;17448;47.200;10.902;2023-06-22T11:36:48;19.05;;;7.47;;
30697;SDS011;17448;47.200;10.902;2023-06-22T11:39:15;22.85;;;7.60;;
30697;SDS011;17448;47.200;10.902;2023-06-22T11:41:41;19.88;;;7.50;;
30697;SDS011;17448;47.200;10.902;2023-06-22T11:44:08;22.42;;;6.65;;
30697;SDS011;17448;47.200;10.902;2023-06-22T11:46:34;25.30;;;7.40;;
30697;SDS011;17448;47.200;10.902;2023-06-22T11:49:01;19.60;;;6.97;;
30697;SDS011;17448;47.200;10.902;2023-06-22T11:51:28;17.92;;;7.25;;
30697;SDS011;17448;47.200;10.902;2023-06-22T11:53:56;19.63;;;7.97;;
30697;SDS011;17448;47.200;10.902;2023-06-22T11:56:23;18.52;;;7.20;;
30697;SDS011;17448;47.200;10.902;2023-06-22T11:58:49;21.17;;;6.35;;
30697;SDS011;17448;47.200;10.902;2023-06-22T12:01:15;16.88;;;6.82;;
30697;SDS011;17448;47.200;10.902;2023-06-22T12:03:42;25.00;;;7.65;;
30697;SDS011;17448;47.200;10.902;2023-06-22T12:06:09;21.33;;;6.57;;
30697;SDS011;17448;47.200;10.902;2023-06-22T12:08:35;17.90;;;7.43;;
30697;SDS011;17448;47.200;10.902;2023-06-22T12:11:01;17.05;;;6.68;;
30697;SDS011;17448;47.200;10.902;2023-06-22T12:13:27;23.73;;;7.70;;
30697;SDS011;17448;47.200;10.902;2023-06-22T12:15:54;20.60;;;7.63;;
30697;SDS011;17448;47.200;10.902;2023-06-22T12:18:20;20.77;;;7.57;;
30697;SDS011;17448;47.200;10.902;2023-06-22T12:20:46;27.33;;;8.65;;
30697;SDS011;17448;47.200;10.902;2023-06-22T12:23:13;22.77;;;7.97;;
30697;SDS011;17448;47.200;10.902;2023-06-22T12:25:39;22.35;;;7.03;;
30697;SDS011;17448;47.200;10.902;2023-06-22T12:28:05;18.73;;;7.95;;
30697;SDS011;17448;47.200;10.902;2023-06-22T12:30:34;23.55;;;8.07;;
30697;SDS011;17448;47.200;10.902;2023-06-22T12:33:00;25.67;;;7.55;;
30697;SDS011;17448;47.200;10.902;2023-06-22T12:35:27;18.80;;;6.53;;
30697;SDS011;17448;47.200;10.902;2023-06-22T12:37:53;19.73;;;6.95;;
30697;SDS011;17448;47.200;10.902;2023-06-22T12:40:19;25.65;;;7.75;;
30697;SDS011;17448;47.200;10.902;2023-06-22T12:42:46;21.00;;;7.55;;
30697;SDS011;17448;47.200;10.902;2023-06-22T12:45:12;26.20;;;7.07;;
30697;SDS011;17448;47.200;10.902;2023-06-22T12:47:39;27.65;;;8.13;;
30697;SDS011;17448;47.200;10.902;2023-06-22T12:50:05;18.73;;;7.60;;
30697;SDS011;17448;47.200;10.902;2023-06-22T12:52:32;21.50;;;8.00;;
30697;SDS011;17448;47.200;10.902;2023-06-22T12:54:58;22.15;;;7.68;;
30697;SDS011;17448;47.200;10.902;2023-06-22T12:57:24;21.92;;;7.50;;
30697;SDS011;17448;47.200;10.902;2023-06-22T12:59:50;20.50;;;8.50;;
30697;SDS011;17448;47.200;10.902;2023-06-22T13:02:17;22.88;;;7.95;;
30697;SDS011;17448;47.200;10.902;2023-06-22T13:04:43;24.35;;;7.57;;
30697;SDS011;17448;47.200;10.902;2023-06-22T13:07:10;26.15;;;7.50;;
30697;SDS011;17448;47.200;10.902;2023-06-22T13:09:36;24.45;;;7.32;;
30697;SDS011;17448;47.200;10.902;2023-06-22T13:12:03;27.23;;;7.15;;
30697;SDS011;17448;47.200;10.902;2023-06-22T13:14:29;24.98;;;7.80;;
30697;SDS011;17448;47.200;10.902;2023-06-22T13:16:55;17.90;;;7.75;;
30697;SDS011;17448;47.200;10.902;2023-06-22T13:19:21;20.35;;;6.60;;
30697;SDS011;17448;47.200;10.902;2023-06-22T13:21:47;17.25;;;7.18;;
30697;SDS011;17448;47.200;10.902;2023-06-22T13:24:13;21.45;;;6.55;;
30697;SDS011;17448;47.200;10.902;2023-06-22T13:26:40;19.83;;;7.80;;
30697;SDS011;17448;47.200;10.902;2023-06-22T13:29:06;20.67;;;6.80;;
30697;SDS011;17448;47.200;10.902;2023-06-22T13:31:32;30.27;;;7.95;;
30697;SDS011;17448;47.200;10.902;2023-06-22T13:33:58;23.63;;;7.97;;
30697;SDS011;17448;47.200;10.902;2023-06-22T13:36:24;21.55;;;6.57;;
30697;SDS011;17448;47.200;10.902;2023-06-22T13:38:50;22.35;;;6.82;;
30697;SDS011;17448;47.200;10.902;2023-06-22T13:41:16;24.58;;;7.45;;
30697;SDS011;17448;47.200;10.902;2023-06-22T13:43:43;23.90;;;7.88;;
30697;SDS011;17448;47.200;10.902;2023-06-22T13:46:09;22.88;;;8.52;;
30697;SDS011;17448;47.200;10.902;2023-06-22T13:48:36;26.52;;;7.78;;
30697;SDS011;17448;47.200;10.902;2023-06-22T13:51:02;27.60;;;7.88;;
30697;SDS011;17448;47.200;10.902;2023-06-22T13:53:28;23.38;;;6.85;;
30697;SDS011;17448;47.200;10.902;2023-06-22T13:55:55;21.27;;;7.40;;
30697;SDS011;17448;47.200;10.902;2023-06-22T13:58:22;22.38;;;7.35;;
30697;SDS011;17448;47.200;10.902;2023-06-22T14:00:48;19.95;;;6.95;;
30697;SDS011;17448;47.200;10.902;2023-06-22T14:03:14;23.17;;;7.07;;
30697;SDS011;17448;47.200;10.902;2023-06-22T14:05:42;18.75;;;6.72;;
30697;SDS011;17448;47.200;10.902;2023-06-22T14:08:08;21.02;;;7.53;;
30697;SDS011;17448;47.200;10.902;2023-06-22T14:10:34;17.25;;;7.90;;
30697;SDS011;17448;47.200;10.902;2023-06-22T14:13:01;18.30;;;6.97;;
30697;SDS011;17448;47.200;10.902;2023-06-22T14:15:29;20.15;;;6.97;;
30697;SDS011;17448;47.200;10.902;2023-06-22T14:17:55;22.15;;;7.50;;
30697;SDS011;17448;47.200;10.902;2023-06-22T14:20:21;28.83;;;7.65;;
30697;SDS011;17448;47.200;10.902;2023-06-22T14:22:47;23.85;;;7.63;;
30697;SDS011;17448;47.200;10.902;2023-06-22T14:25:14;21.67;;;6.82;;
30697;SDS011;17448;47.200;10.902;2023-06-22T14:27:40;29.15;;;7.57;;
30697;SDS011;17448;47.200;10.902;2023-06-22T14:30:06;15.70;;;6.43;;
30697;SDS011;17448;47.200;10.902;2023-06-22T14:32:33;28.38;;;8.43;;
30697;SDS011;17448;47.200;10.902;2023-06-22T14:34:59;18.48;;;6.82;;
30697;SDS011;17448;47.200;10.902;2023-06-22T14:37:25;26.33;;;7.50;;